sensor_id;sensor_type;location;lat;lon;timestamp;pressure;altitude;pressure_sealevel;temperature;humidity
84592;BME280;74826;50.812;16.038;2024-03-23T00:54:02;95946.94;;;10.50;72.53
84592;BME280;74826;50.812;16.038;2024-03-23T00:56:29;95946.25;;;10.53;72.90
84592;BME280;74826;50.812;16.038;2024-03-23T00:58:54;95937.25;;;10.54;72.60
84592;BME280;74826;50.812;16.038;2024-03-23T01:01:19;95953.03;;;10.66;72.58
84592;BME280;74826;50.812;16.038;2024-03-23T01:03:45;95917.66;;;10.00;73.62
84592;BME280;74826;50.812;16.038;2024-03-23T01:06:10;95941.75;;;10.26;73.24
84592;BME280;74826;50.812;16.038;2024-03-23T01:08:35;95931.41;;;10.33;73.37
84592;BME280;74826;50.812;16.038;2024-03-23T01:11:01;95949.72;;;10.42;73.84
84592;BME280;74826;50.812;16.038;2024-03-23T01:13:28;95928.91;;;10.25;74.00
84592;BME280;74826;50.812;16.038;2024-03-23T01:15:54;95894.69;;;9.73;73.95
84592;BME280;74826;50.812;16.038;2024-03-23T01:18:21;95912.84;;;9.90;74.49
84592;BME280;74826;50.812;16.038;2024-03-23T01:20:47;95935.00;;;10.01;73.94
84592;BME280;74826;50.812;16.038;2024-03-23T01:23:12;95925.88;;;9.99;74.02
84592;BME280;74826;50.812;16.038;2024-03-23T01:25:38;95918.31;;;9.97;73.50
84592;BME280;74826;50.812;16.038;2024-03-23T01:28:04;95911.56;;;9.84;73.59
84592;BME280;74826;50.812;16.038;2024-03-23T01:30:29;95876.63;;;9.87;72.84
84592;BME280;74826;50.812;16.038;2024-03-23T01:32:55;95893.72;;;9.93;73.39
84592;BME280;74826;50.812;16.038;2024-03-23T01:35:21;95884.09;;;9.85;73.73
84592;BME280;74826;50.812;16.038;2024-03-23T01:37:46;95893.84;;;9.97;73.63
84592;BME280;74826;50.812;16.038;2024-03-23T01:40:12;95894.84;;;9.92;73.25
84592;BME280;74826;50.812;16.038;2024-03-23T01:42:40;95892.50;;;9.63;73.57
84592;BME280;74826;50.812;16.038;2024-03-23T01:45:09;95863.91;;;9.25;74.96
84592;BME280;74826;50.812;16.038;2024-03-23T01:47:37;95877.41;;;9.36;76.64
84592;BME280;74826;50.812;16.038;2024-03-23T01:50:03;95864.00;;;9.29;76.02
84592;BME280;74826;50.812;16.038;2024-03-23T01:52:28;95864.78;;;9.41;76.72
84592;BME280;74826;50.812;16.038;2024-03-23T01:54:55;95860.59;;;9.52;75.77
84592;BME280;74826;50.812;16.038;2024-03-23T01:57:21;95878.00;;;9.69;76.00
84592;BME280;74826;50.812;16.038;2024-03-23T01:59:47;95869.59;;;9.91;73.80
84592;BME280;74826;50.812;16.038;2024-03-23T02:02:13;95807.81;;;9.61;73.25
84592;BME280;74826;50.812;16.038;2024-03-23T02:04:38;95870.41;;;10.19;73.17
84592;BME280;74826;50.812;16.038;2024-03-23T02:07:04;95854.72;;;10.11;73.35
84592;BME280;74826;50.812;16.038;2024-03-23T02:09:31;95864.22;;;10.27;73.71
84592;BME280;74826;50.812;16.038;2024-03-23T02:11:57;95869.25;;;10.32;73.87
84592;BME280;74826;50.812;16.038;2024-03-23T02:14:23;95876.00;;;10.45;73.23
84592;BME280;74826;50.812;16.038;2024-03-23T02:16:48;95863.22;;;10.47;72.21
84592;BME280;74826;50.812;16.038;2024-03-23T02:19:13;95861.22;;;10.56;72.76
84592;BME280;74826;50.812;16.038;2024-03-23T02:21:39;95848.56;;;10.34;71.35
84592;BME280;74826;50.812;16.038;2024-03-23T02:24:04;95826.25;;;10.16;72.79
84592;BME280;74826;50.812;16.038;2024-03-23T02:26:30;95834.31;;;10.35;71.83
84592;BME280;74826;50.812;16.038;2024-03-23T02:28:55;95845.97;;;10.50;72.02
84592;BME280;74826;50.812;16.038;2024-03-23T02:31:21;95833.81;;;10.45;71.18
84592;BME280;74826;50.812;16.038;2024-03-23T02:33:46;95831.50;;;10.44;71.06
84592;BME280;74826;50.812;16.038;2024-03-23T02:36:11;95822.00;;;10.55;70.64
84592;BME280;74826;50.812;16.038;2024-03-23T02:38:37;95827.25;;;10.39;70.67
84592;BME280;74826;50.812;16.038;2024-03-23T02:41:05;95827.69;;;10.41;71.73
84592;BME280;74826;50.812;16.038;2024-03-23T02:43:30;95808.69;;;10.36;72.08
84592;BME280;74826;50.812;16.038;2024-03-23T02:45:56;95830.56;;;10.36;72.89
84592;BME280;74826;50.812;16.038;2024-03-23T02:48:21;95835.47;;;10.38;71.78
84592;BME280;74826;50.812;16.038;2024-03-23T02:50:47;95830.31;;;10.41;71.75
84592;BME280;74826;50.812;16.038;2024-03-23T02:53:12;95823.94;;;10.42;71.66
84592;BME280;74826;50.812;16.038;2024-03-23T02:55:37;95801.63;;;10.40;72.63
84592;BME280;74826;50.812;16.038;2024-03-23T02:58:03;95798.75;;;10.45;71.04
84592;BME280;74826;50.812;16.038;2024-03-23T03:00:29;95800.88;;;10.39;70.89
84592;BME280;74826;50.812;16.038;2024-03-23T03:02:54;95803.63;;;10.58;70.74
84592;BME280;74826;50.812;16.038;2024-03-23T03:05:20;95772.81;;;10.31;68.23
84592;BME280;74826;50.812;16.038;2024-03-23T03:07:46;95811.09;;;10.41;69.54
84592;BME280;74826;50.812;16.038;2024-03-23T03:10:11;95787.69;;;10.24;69.63
84592;BME280;74826;50.812;16.038;2024-03-23T03:12:37;95798.75;;;10.29;70.53
84592;BME280;74826;50.812;16.038;2024-03-23T03:15:03;95784.81;;;10.44;70.05
84592;BME280;74826;50.812;16.038;2024-03-23T03:17:30;95786.25;;;10.57;69.41
84592;BME280;74826;50.812;16.038;2024-03-23T03:19:55;95786.75;;;10.63;68.78
84592;BME280;74826;50.812;16.038;2024-03-23T03:22:24;95776.38;;;10.54;68.09
84592;BME280;74826;50.812;16.038;2024-03-23T03:24:49;95780.66;;;10.59;68.68
84592;BME280;74826;50.812;16.038;2024-03-23T03:27:15;95749.16;;;10.35;68.97
84592;BME280;74826;50.812;16.038;2024-03-23T03:29:40;95771.78;;;10.51;68.39
84592;BME280;74826;50.812;16.038;2024-03-23T03:32:06;95782.94;;;10.60;68.65
84592;BME280;74826;50.812;16.038;2024-03-23T03:34:31;95786.00;;;10.62;68.17
84592;BME280;74826;50.812;16.038;2024-03-23T03:36:57;95769.25;;;10.55;69.35
84592;BME280;74826;50.812;16.038;2024-03-23T03:39:22;95765.91;;;10.42;69.43
84592;BME280;74826;50.812;16.038;2024-03-23T03:41:48;95760.13;;;10.21;69.67
84592;BME280;74826;50.812;16.038;2024-03-23T03:44:14;95772.97;;;10.23;69.53
84592;BME280;74826;50.812;16.038;2024-03-23T03:46:39;95751.09;;;10.22;68.02
84592;BME280;74826;50.812;16.038;2024-03-23T03:49:04;95766.41;;;10.32;67.61
84592;BME280;74826;50.812;16.038;2024-03-23T03:51:30;95751.28;;;10.29;67.36
84592;BME280;74826;50.812;16.038;2024-03-23T03:53:55;95748.91;;;10.24;67.21
84592;BME280;74826;50.812;16.038;2024-03-23T03:56:21;95715.19;;;10.02;67.55
84592;BME280;74826;50.812;16.038;2024-03-23T03:58:47;95755.44;;;10.30;67.70
84592;BME280;74826;50.812;16.038;2024-03-23T04:01:13;95756.22;;;10.15;67.41
84592;BME280;74826;50.812;16.038;2024-03-23T04:03:38;95745.31;;;9.73;69.21
84592;BME280;74826;50.812;16.038;2024-03-23T04:06:08;95739.66;;;9.32;70.59
84592;BME280;74826;50.812;16.038;2024-03-23T04:08:34;95717.91;;;9.07;70.15
84592;BME280;74826;50.812;16.038;2024-03-23T04:10:59;95731.59;;;9.13;71.01
84592;BME280;74826;50.812;16.038;2024-03-23T04:13:24;95745.41;;;9.22;70.02
84592;BME280;74826;50.812;16.038;2024-03-23T04:15:54;95718.56;;;9.16;70.49
84592;BME280;74826;50.812;16.038;2024-03-23T04:18:20;95735.31;;;9.12;72.19
84592;BME280;74826;50.812;16.038;2024-03-23T04:20:45;95720.44;;;9.04;70.21
84592;BME280;74826;50.812;16.038;2024-03-23T04:23:11;95739.44;;;9.25;69.97
84592;BME280;74826;50.812;16.038;2024-03-23T04:25:37;95744.53;;;9.18;71.23
84592;BME280;74826;50.812;16.038;2024-03-23T04:28:02;95744.63;;;9.21;70.21
84592;BME280;74826;50.812;16.038;2024-03-23T04:30:28;95740.94;;;8.98;71.05
84592;BME280;74826;50.812;16.038;2024-03-23T04:32:54;95736.22;;;8.91;71.90
84592;BME280;74826;50.812;16.038;2024-03-23T04:35:19;95731.88;;;8.83;71.02
84592;BME280;74826;50.812;16.038;2024-03-23T04:37:47;95714.81;;;8.53;71.95
84592;BME280;74826;50.812;16.038;2024-03-23T04:40:12;95695.09;;;8.47;73.03
84592;BME280;74826;50.812;16.038;2024-03-23T04:42:38;95689.84;;;8.47;74.48
84592;BME280;74826;50.812;16.038;2024-03-23T04:45:04;95720.50;;;8.67;74.30
84592;BME280;74826;50.812;16.038;2024-03-23T04:47:31;95712.81;;;8.86;75.40
84592;BME280;74826;50.812;16.038;2024-03-23T04:49:56;95713.69;;;8.78;75.05
84592;BME280;74826;50.812;16.038;2024-03-23T04:52:22;95703.50;;;8.77;74.37
84592;BME280;74826;50.812;16.038;2024-03-23T04:54:47;95703.59;;;8.80;74.45
84592;BME280;74826;50.812;16.038;2024-03-23T04:57:12;95704.94;;;8.74;73.39
84592;BME280;74826;50.812;16.038;2024-03-23T04:59:38;95698.94;;;9.02;72.88
84592;BME280;74826;50.812;16.038;2024-03-23T05:02:03;95705.09;;;9.06;72.97
84592;BME280;74826;50.812;16.038;2024-03-23T05:04:29;95679.34;;;8.99;71.85
84592;BME280;74826;50.812;16.038;2024-03-23T05:06:54;95673.22;;;8.95;71.51
84592;BME280;74826;50.812;16.038;2024-03-23T05:09:19;95682.88;;;9.19;71.34
84592;BME280;74826;50.812;16.038;2024-03-23T05:11:45;95657.66;;;9.30;70.77
84592;BME280;74826;50.812;16.038;2024-03-23T05:14:14;95669.16;;;9.53;70.62
84592;BME280;74826;50.812;16.038;2024-03-23T05:16:40;95652.69;;;9.56;69.74
84592;BME280;74826;50.812;16.038;2024-03-23T05:19:06;95631.06;;;9.35;69.63
84592;BME280;74826;50.812;16.038;2024-03-23T05:21:31;95633.78;;;9.38;69.32
84592;BME280;74826;50.812;16.038;2024-03-23T05:23:56;95655.72;;;9.42;70.11
84592;BME280;74826;50.812;16.038;2024-03-23T05:26:22;95656.41;;;9.12;71.71
84592;BME280;74826;50.812;16.038;2024-03-23T05:28:48;95671.53;;;9.15;71.16
84592;BME280;74826;50.812;16.038;2024-03-23T05:31:23;95663.00;;;9.06;72.38
84592;BME280;74826;50.812;16.038;2024-03-23T05:33:49;95659.28;;;9.07;71.19
84592;BME280;74826;50.812;16.038;2024-03-23T05:36:14;95661.94;;;8.94;72.10
84592;BME280;74826;50.812;16.038;2024-03-23T05:38:40;95678.06;;;9.21;71.21
84592;BME280;74826;50.812;16.038;2024-03-23T05:41:05;95659.84;;;9.28;71.61
84592;BME280;74826;50.812;16.038;2024-03-23T05:43:30;95661.88;;;9.34;71.56
84592;BME280;74826;50.812;16.038;2024-03-23T05:45:57;95650.13;;;9.44;71.56
84592;BME280;74826;50.812;16.038;2024-03-23T05:48:23;95671.53;;;9.58;71.92
84592;BME280;74826;50.812;16.038;2024-03-23T05:50:49;95650.81;;;9.56;71.65
84592;BME280;74826;50.812;16.038;2024-03-23T05:53:15;95637.13;;;9.51;72.55
84592;BME280;74826;50.812;16.038;2024-03-23T05:55:41;95646.91;;;9.66;72.12
84592;BME280;74826;50.812;16.038;2024-03-23T05:58:06;95620.16;;;9.64;71.39
84592;BME280;74826;50.812;16.038;2024-03-23T06:00:31;95637.00;;;9.75;71.23
84592;BME280;74826;50.812;16.038;2024-03-23T06:02:57;95640.72;;;9.74;71.46
84592;BME280;74826;50.812;16.038;2024-03-23T06:05:22;95620.41;;;9.43;71.71
84592;BME280;74826;50.812;16.038;2024-03-23T06:07:49;95636.22;;;9.16;73.89
84592;BME280;74826;50.812;16.038;2024-03-23T06:10:15;95637.84;;;9.20;73.42
84592;BME280;74826;50.812;16.038;2024-03-23T06:12:40;95637.97;;;9.12;73.83
84592;BME280;74826;50.812;16.038;2024-03-23T06:15:06;95604.84;;;8.95;74.18
84592;BME280;74826;50.812;16.038;2024-03-23T06:17:38;95629.00;;;9.13;73.93
84592;BME280;74826;50.812;16.038;2024-03-23T06:20:05;95602.53;;;8.93;74.48
84592;BME280;74826;50.812;16.038;2024-03-23T06:22:31;95607.94;;;9.13;74.39
84592;BME280;74826;50.812;16.038;2024-03-23T06:24:57;95598.81;;;9.22;73.55
84592;BME280;74826;50.812;16.038;2024-03-23T06:27:23;95602.13;;;9.35;73.11
84592;BME280;74826;50.812;16.038;2024-03-23T06:29:48;95594.16;;;9.47;73.49
84592;BME280;74826;50.812;16.038;2024-03-23T06:32:13;95586.69;;;9.49;72.57
84592;BME280;74826;50.812;16.038;2024-03-23T06:34:41;95558.25;;;9.54;73.34
84592;BME280;74826;50.812;16.038;2024-03-23T06:37:07;95565.97;;;9.63;71.85
84592;BME280;74826;50.812;16.038;2024-03-23T06:39:32;95565.63;;;9.64;71.82
84592;BME280;74826;50.812;16.038;2024-03-23T06:41:58;95565.38;;;9.69;72.70
84592;BME280;74826;50.812;16.038;2024-03-23T06:44:23;95561.22;;;9.84;73.04
84592;BME280;74826;50.812;16.038;2024-03-23T06:46:49;95560.94;;;9.73;71.88
84592;BME280;74826;50.812;16.038;2024-03-23T06:49:15;95554.31;;;9.79;71.82
84592;BME280;74826;50.812;16.038;2024-03-23T06:51:41;95559.75;;;10.02;70.64
84592;BME280;74826;50.812;16.038;2024-03-23T06:54:06;95522.25;;;9.93;70.91
84592;BME280;74826;50.812;16.038;2024-03-23T06:56:32;95525.00;;;10.12;70.43
84592;BME280;74826;50.812;16.038;2024-03-23T06:58:58;95528.06;;;10.33;72.44
84592;BME280;74826;50.812;16.038;2024-03-23T07:01:23;95526.81;;;10.65;69.89
84592;BME280;74826;50.812;16.038;2024-03-23T07:03:48;95519.19;;;10.60;68.89
84592;BME280;74826;50.812;16.038;2024-03-23T07:06:14;95510.38;;;10.72;68.62
84592;BME280;74826;50.812;16.038;2024-03-23T07:08:39;95514.88;;;10.71;70.67
84592;BME280;74826;50.812;16.038;2024-03-23T07:11:05;95505.00;;;10.88;69.55
84592;BME280;74826;50.812;16.038;2024-03-23T07:13:30;95511.19;;;11.18;69.97
84592;BME280;74826;50.812;16.038;2024-03-23T07:15:56;95487.53;;;11.02;68.24
84592;BME280;74826;50.812;16.038;2024-03-23T07:18:22;95497.72;;;11.23;69.30
84592;BME280;74826;50.812;16.038;2024-03-23T07:20:55;95498.19;;;11.28;68.41
84592;BME280;74826;50.812;16.038;2024-03-23T07:23:21;95504.50;;;11.24;68.78
84592;BME280;74826;50.812;16.038;2024-03-23T07:26:02;95494.81;;;11.31;67.86
84592;BME280;74826;50.812;16.038;2024-03-23T07:28:28;95500.06;;;11.28;67.46
84592;BME280;74826;50.812;16.038;2024-03-23T07:31:10;95472.97;;;11.31;67.31
84592;BME280;74826;50.812;16.038;2024-03-23T07:33:39;95475.53;;;11.50;67.39
84592;BME280;74826;50.812;16.038;2024-03-23T07:36:06;95464.84;;;11.43;68.24
84592;BME280;74826;50.812;16.038;2024-03-23T07:38:32;95472.88;;;11.50;67.44
84592;BME280;74826;50.812;16.038;2024-03-23T07:43:28;95462.78;;;11.55;67.01
84592;BME280;74826;50.812;16.038;2024-03-23T07:45:54;95456.53;;;11.41;66.02
84592;BME280;74826;50.812;16.038;2024-03-23T07:48:21;95435.78;;;11.17;67.45
84592;BME280;74826;50.812;16.038;2024-03-23T07:51:04;95408.72;;;11.23;67.07
84592;BME280;74826;50.812;16.038;2024-03-23T07:53:30;95411.84;;;11.29;65.46
84592;BME280;74826;50.812;16.038;2024-03-23T07:56:09;95391.41;;;11.26;66.11
84592;BME280;74826;50.812;16.038;2024-03-23T07:58:36;95405.66;;;11.70;66.18
84592;BME280;74826;50.812;16.038;2024-03-23T08:03:34;95411.34;;;12.02;64.88
84592;BME280;74826;50.812;16.038;2024-03-23T08:08:34;95438.47;;;11.95;64.57
84592;BME280;74826;50.812;16.038;2024-03-23T08:11:00;95422.78;;;11.57;64.88
84592;BME280;74826;50.812;16.038;2024-03-23T08:13:26;95433.78;;;11.33;65.47
84592;BME280;74826;50.812;16.038;2024-03-23T08:15:51;95402.69;;;11.23;66.40
84592;BME280;74826;50.812;16.038;2024-03-23T08:18:16;95437.16;;;11.33;67.02
84592;BME280;74826;50.812;16.038;2024-03-23T08:20:42;95393.97;;;10.73;67.19
84592;BME280;74826;50.812;16.038;2024-03-23T08:23:08;95397.06;;;11.02;68.15
84592;BME280;74826;50.812;16.038;2024-03-23T08:25:33;95349.75;;;10.90;68.94
84592;BME280;74826;50.812;16.038;2024-03-23T08:27:59;95371.50;;;11.06;68.19
84592;BME280;74826;50.812;16.038;2024-03-23T08:30:25;95364.09;;;11.15;68.02
84592;BME280;74826;50.812;16.038;2024-03-23T08:32:51;95351.31;;;11.17;67.82
84592;BME280;74826;50.812;16.038;2024-03-23T08:35:16;95343.78;;;11.19;68.72
84592;BME280;74826;50.812;16.038;2024-03-23T08:37:42;95321.38;;;11.35;68.08
84592;BME280;74826;50.812;16.038;2024-03-23T08:40:08;95339.06;;;11.61;67.12
84592;BME280;74826;50.812;16.038;2024-03-23T08:42:34;95330.63;;;12.11;67.51
84592;BME280;74826;50.812;16.038;2024-03-23T08:44:59;95346.56;;;12.51;65.44
84592;BME280;74826;50.812;16.038;2024-03-23T08:47:24;95326.97;;;12.60;64.05
84592;BME280;74826;50.812;16.038;2024-03-23T08:49:50;95291.81;;;12.59;63.30
84592;BME280;74826;50.812;16.038;2024-03-23T08:52:15;95307.50;;;12.82;66.13
84592;BME280;74826;50.812;16.038;2024-03-23T08:54:41;95268.56;;;12.86;63.62
84592;BME280;74826;50.812;16.038;2024-03-23T08:57:06;95294.13;;;13.11;62.55
84592;BME280;74826;50.812;16.038;2024-03-23T08:59:32;95298.94;;;12.99;61.97
84592;BME280;74826;50.812;16.038;2024-03-23T09:01:57;95275.81;;;12.92;63.52
84592;BME280;74826;50.812;16.038;2024-03-23T09:04:23;95272.88;;;12.53;64.69
84592;BME280;74826;50.812;16.038;2024-03-23T09:06:48;95280.53;;;12.66;65.65
84592;BME280;74826;50.812;16.038;2024-03-23T09:09:13;95287.34;;;13.14;63.33
84592;BME280;74826;50.812;16.038;2024-03-23T09:11:39;95293.09;;;13.30;63.98
84592;BME280;74826;50.812;16.038;2024-03-23T09:14:04;95285.59;;;13.46;62.59
84592;BME280;74826;50.812;16.038;2024-03-23T09:16:29;95283.16;;;14.02;62.69
84592;BME280;74826;50.812;16.038;2024-03-23T09:18:55;95284.56;;;13.61;64.03
84592;BME280;74826;50.812;16.038;2024-03-23T09:21:20;95274.06;;;13.10;63.54
84592;BME280;74826;50.812;16.038;2024-03-23T09:23:46;95276.25;;;13.01;63.16
84592;BME280;74826;50.812;16.038;2024-03-23T09:26:11;95277.25;;;13.40;62.39
84592;BME280;74826;50.812;16.038;2024-03-23T09:28:36;95244.06;;;13.68;61.90
84592;BME280;74826;50.812;16.038;2024-03-23T09:31:05;95250.22;;;14.07;62.12
84592;BME280;74826;50.812;16.038;2024-03-23T09:33:30;95257.91;;;14.51;59.82
84592;BME280;74826;50.812;16.038;2024-03-23T09:35:56;95257.91;;;14.72;57.73
84592;BME280;74826;50.812;16.038;2024-03-23T09:38:24;95236.63;;;14.79;59.01
84592;BME280;74826;50.812;16.038;2024-03-23T09:40:52;95232.06;;;14.23;59.04
84592;BME280;74826;50.812;16.038;2024-03-23T09:43:18;95243.13;;;14.39;60.23
84592;BME280;74826;50.812;16.038;2024-03-23T09:45:45;95240.44;;;14.71;59.39
84592;BME280;74826;50.812;16.038;2024-03-23T09:48:10;95233.63;;;14.49;59.45
84592;BME280;74826;50.812;16.038;2024-03-23T09:50:39;95240.06;;;14.93;57.84
84592;BME280;74826;50.812;16.038;2024-03-23T09:53:13;95224.53;;;14.57;57.50
84592;BME280;74826;50.812;16.038;2024-03-23T09:55:43;95228.28;;;14.94;57.31
84592;BME280;74826;50.812;16.038;2024-03-23T09:58:12;95224.66;;;15.64;55.87
84592;BME280;74826;50.812;16.038;2024-03-23T10:00:38;95222.63;;;15.96;54.68
84592;BME280;74826;50.812;16.038;2024-03-23T10:03:04;95215.97;;;15.60;54.65
84592;BME280;74826;50.812;16.038;2024-03-23T10:05:32;95209.81;;;15.70;54.50
84592;BME280;74826;50.812;16.038;2024-03-23T10:08:17;95214.09;;;15.54;56.62
84592;BME280;74826;50.812;16.038;2024-03-23T10:10:43;95190.56;;;15.52;56.48
84592;BME280;74826;50.812;16.038;2024-03-23T10:13:09;95197.59;;;14.51;58.02
84592;BME280;74826;50.812;16.038;2024-03-23T10:15:35;95207.09;;;14.63;58.68
84592;BME280;74826;50.812;16.038;2024-03-23T10:18:27;95197.94;;;14.92;58.10
84592;BME280;74826;50.812;16.038;2024-03-23T10:23:34;95196.50;;;14.27;59.87
84592;BME280;74826;50.812;16.038;2024-03-23T10:26:22;95199.47;;;13.94;60.40
84592;BME280;74826;50.812;16.038;2024-03-23T10:28:58;95197.19;;;14.10;59.52
84592;BME280;74826;50.812;16.038;2024-03-23T10:31:26;95191.47;;;13.87;60.67
84592;BME280;74826;50.812;16.038;2024-03-23T10:33:51;95204.69;;;13.59;61.30
84592;BME280;74826;50.812;16.038;2024-03-23T10:36:20;95203.19;;;13.76;61.68
84592;BME280;74826;50.812;16.038;2024-03-23T10:38:46;95188.00;;;13.62;62.41
84592;BME280;74826;50.812;16.038;2024-03-23T10:41:12;95194.03;;;13.45;62.41
84592;BME280;74826;50.812;16.038;2024-03-23T10:43:38;95183.88;;;13.65;62.79
84592;BME280;74826;50.812;16.038;2024-03-23T10:46:04;95187.66;;;13.71;61.78
84592;BME280;74826;50.812;16.038;2024-03-23T10:48:30;95192.63;;;13.86;61.87
84592;BME280;74826;50.812;16.038;2024-03-23T10:50:56;95200.22;;;13.98;60.51
84592;BME280;74826;50.812;16.038;2024-03-23T10:53:26;95193.38;;;13.97;58.76
84592;BME280;74826;50.812;16.038;2024-03-23T10:55:52;95199.47;;;14.22;58.76
84592;BME280;74826;50.812;16.038;2024-03-23T10:58:26;95196.47;;;14.35;57.03
84592;BME280;74826;50.812;16.038;2024-03-23T11:00:53;95203.31;;;14.43;56.52
84592;BME280;74826;50.812;16.038;2024-03-23T11:05:55;95190.03;;;14.57;56.41
84592;BME280;74826;50.812;16.038;2024-03-23T11:08:38;95204.06;;;14.54;56.01
84592;BME280;74826;50.812;16.038;2024-03-23T11:11:24;95216.56;;;14.53;55.32
84592;BME280;74826;50.812;16.038;2024-03-23T11:13:53;95219.97;;;14.33;56.31
84592;BME280;74826;50.812;16.038;2024-03-23T11:16:27;95220.31;;;14.13;54.88
84592;BME280;74826;50.812;16.038;2024-03-23T11:19:35;95190.38;;;14.16;55.07
84592;BME280;74826;50.812;16.038;2024-03-23T11:22:04;95168.78;;;14.21;54.91
84592;BME280;74826;50.812;16.038;2024-03-23T11:24:33;95172.22;;;14.33;51.75
84592;BME280;74826;50.812;16.038;2024-03-23T11:26:59;95199.47;;;14.22;53.53
84592;BME280;74826;50.812;16.038;2024-03-23T11:29:29;95204.00;;;14.04;53.72
84592;BME280;74826;50.812;16.038;2024-03-23T11:31:55;95203.97;;;13.83;54.17
84592;BME280;74826;50.812;16.038;2024-03-23T11:34:21;95200.97;;;13.92;55.09
84592;BME280;74826;50.812;16.038;2024-03-23T11:36:46;95207.78;;;13.96;55.27
84592;BME280;74826;50.812;16.038;2024-03-23T11:39:16;95193.75;;;13.75;54.32
84592;BME280;74826;50.812;16.038;2024-03-23T11:41:56;95209.25;;;13.76;55.60
84592;BME280;74826;50.812;16.038;2024-03-23T11:44:26;95220.25;;;13.78;55.89
84592;BME280;74826;50.812;16.038;2024-03-23T11:46:52;95213.75;;;13.58;57.30
84592;BME280;74826;50.812;16.038;2024-03-23T11:49:24;95216.38;;;13.55;58.60
84592;BME280;74826;50.812;16.038;2024-03-23T11:51:51;95216.00;;;13.56;61.82
84592;BME280;74826;50.812;16.038;2024-03-23T11:54:20;95211.41;;;13.46;62.40
84592;BME280;74826;50.812;16.038;2024-03-23T11:57:04;95209.16;;;13.41;63.94
84592;BME280;74826;50.812;16.038;2024-03-23T11:59:34;95196.25;;;13.36;64.00
84592;BME280;74826;50.812;16.038;2024-03-23T12:02:00;95196.94;;;13.19;65.61
84592;BME280;74826;50.812;16.038;2024-03-23T12:04:30;95198.09;;;13.25;66.44
84592;BME280;74826;50.812;16.038;2024-03-23T12:09:35;95219.66;;;13.20;63.61
84592;BME280;74826;50.812;16.038;2024-03-23T12:12:05;95200.03;;;13.35;64.80
84592;BME280;74826;50.812;16.038;2024-03-23T12:14:30;95220.44;;;13.31;63.92
84592;BME280;74826;50.812;16.038;2024-03-23T12:17:07;95192.38;;;13.12;64.66
84592;BME280;74826;50.812;16.038;2024-03-23T12:19:33;95185.63;;;13.22;62.25
84592;BME280;74826;50.812;16.038;2024-03-23T12:21:58;95209.09;;;13.27;62.06
84592;BME280;74826;50.812;16.038;2024-03-23T12:24:23;95206.81;;;13.29;62.06
84592;BME280;74826;50.812;16.038;2024-03-23T12:26:49;95217.31;;;13.08;60.32
84592;BME280;74826;50.812;16.038;2024-03-23T12:29:15;95222.56;;;13.01;60.95
84592;BME280;74826;50.812;16.038;2024-03-23T12:31:41;95223.19;;;12.84;61.19
84592;BME280;74826;50.812;16.038;2024-03-23T12:34:06;95252.66;;;12.79;60.66
84592;BME280;74826;50.812;16.038;2024-03-23T12:36:31;95244.19;;;12.56;60.62
84592;BME280;74826;50.812;16.038;2024-03-23T12:38:57;95277.72;;;12.04;65.21
84592;BME280;74826;50.812;16.038;2024-03-23T12:41:23;95311.59;;;10.84;68.40
84592;BME280;74826;50.812;16.038;2024-03-23T12:43:49;95311.13;;;10.10;72.21
84592;BME280;74826;50.812;16.038;2024-03-23T12:46:15;95326.06;;;9.68;74.85
84592;BME280;74826;50.812;16.038;2024-03-23T12:48:40;95326.91;;;9.72;75.60
84592;BME280;74826;50.812;16.038;2024-03-23T12:51:07;95338.81;;;9.66;74.01
84592;BME280;74826;50.812;16.038;2024-03-23T12:53:32;95336.31;;;9.54;73.58
84592;BME280;74826;50.812;16.038;2024-03-23T12:55:58;95321.50;;;9.65;74.00
84592;BME280;74826;50.812;16.038;2024-03-23T12:58:23;95305.00;;;9.68;72.83
84592;BME280;74826;50.812;16.038;2024-03-23T13:00:49;95330.38;;;9.76;73.56
84592;BME280;74826;50.812;16.038;2024-03-23T13:03:14;95337.88;;;9.74;72.45
84592;BME280;74826;50.812;16.038;2024-03-23T13:05:40;95334.69;;;9.84;70.88
84592;BME280;74826;50.812;16.038;2024-03-23T13:08:06;95379.16;;;9.89;72.05
84592;BME280;74826;50.812;16.038;2024-03-23T13:10:32;95401.50;;;9.41;71.71
84592;BME280;74826;50.812;16.038;2024-03-23T13:12:58;95407.88;;;9.25;72.63
84592;BME280;74826;50.812;16.038;2024-03-23T13:15:23;95392.09;;;8.93;73.30
84592;BME280;74826;50.812;16.038;2024-03-23T13:17:48;95424.88;;;8.80;74.27
84592;BME280;74826;50.812;16.038;2024-03-23T13:20:14;95426.00;;;7.84;72.83
84592;BME280;74826;50.812;16.038;2024-03-23T13:22:40;95433.84;;;7.45;73.46
84592;BME280;74826;50.812;16.038;2024-03-23T13:25:06;95420.94;;;7.40;73.83
84592;BME280;74826;50.812;16.038;2024-03-23T13:27:31;95440.84;;;7.04;73.32
84592;BME280;74826;50.812;16.038;2024-03-23T13:29:57;95440.19;;;6.95;73.56
84592;BME280;74826;50.812;16.038;2024-03-23T13:32:22;95413.06;;;6.79;72.01
84592;BME280;74826;50.812;16.038;2024-03-23T13:34:48;95425.53;;;6.94;71.23
84592;BME280;74826;50.812;16.038;2024-03-23T13:37:15;95421.63;;;6.88;71.21
84592;BME280;74826;50.812;16.038;2024-03-23T13:39:41;95416.13;;;6.81;72.21
84592;BME280;74826;50.812;16.038;2024-03-23T13:42:07;95448.69;;;6.92;72.15
84592;BME280;74826;50.812;16.038;2024-03-23T13:44:34;95466.41;;;7.07;73.16
84592;BME280;74826;50.812;16.038;2024-03-23T13:46:59;95510.56;;;7.05;72.04
84592;BME280;74826;50.812;16.038;2024-03-23T13:49:29;95468.94;;;6.59;73.63
84592;BME280;74826;50.812;16.038;2024-03-23T13:51:56;95504.41;;;6.36;74.85
84592;BME280;74826;50.812;16.038;2024-03-23T13:54:23;95501.50;;;6.38;75.79
84592;BME280;74826;50.812;16.038;2024-03-23T13:56:54;95496.56;;;6.36;74.71
84592;BME280;74826;50.812;16.038;2024-03-23T13:59:20;95517.97;;;6.38;74.66